Time;durP1;ratioP1;P1;durP2;ratioP2;P2;SDS_P1;SDS_P2;PMS_P1;PMS_P2;Temp;Humidity;BMP_temperature;BMP_pressure;BME280_temperature;BME280_humidity;BME280_pressure;Samples;Min_cycle;Max_cycle;Signal;HPM_P1;HPM_P2
2023/12/09 00:01:23;;;;;;;4.35;2.88;;;38.00;32.10;;;;;;4993131;28;20188;-73
2023/12/09 00:03:51;;;;;;;7.38;2.78;;;38.40;31.70;;;;;;4993577;28;20562;-69
2023/12/09 00:06:23;;;;;;;4.00;2.53;;;38.40;31.40;;;;;;4990523;28;20273;-71
2023/12/09 00:08:51;;;;;;;6.57;3.35;;;38.40;30.90;;;;;;4989450;28;20260;-69
2023/12/09 00:11:18;;;;;;;7.55;3.22;;;38.60;31.50;;;;;;4991927;28;20217;-67
2023/12/09 00:13:45;;;;;;;4.03;3.05;;;38.60;30.90;;;;;;4992454;28;20182;-69
2023/12/09 00:16:13;;;;;;;6.93;3.33;;;38.60;31.40;;;;;;4991760;28;20190;-71
2023/12/09 00:18:41;;;;;;;6.53;3.47;;;38.80;30.70;;;;;;4989701;28;20267;-69
2023/12/09 00:21:08;;;;;;;4.95;3.20;;;38.80;31.10;;;;;;4989558;28;20268;-67
2023/12/09 00:23:36;;;;;;;5.70;3.05;;;39.00;30.40;;;;;;4988172;28;20189;-71
2023/12/09 00:26:04;;;;;;;5.38;3.38;;;38.80;31.00;;;;;;4994636;28;20549;-72
2023/12/09 00:28:31;;;;;;;7.60;3.33;;;39.00;30.50;;;;;;4992790;28;20232;-70
2023/12/09 00:30:59;;;;;;;6.40;3.38;;;39.10;30.00;;;;;;4987320;28;21927;-68
2023/12/09 00:33:26;;;;;;;4.07;3.55;;;39.00;30.00;;;;;;4989996;28;20644;-72
2023/12/09 00:35:53;;;;;;;8.02;3.70;;;39.30;29.90;;;;;;4993508;28;20590;-72
2023/12/09 00:38:20;;;;;;;12.23;3.75;;;39.30;29.90;;;;;;4992404;28;20241;-71
2023/12/09 00:40:48;;;;;;;3.28;2.97;;;39.70;29.30;;;;;;4992757;28;20185;-72
2023/12/09 00:43:15;;;;;;;5.30;3.20;;;39.80;29.70;;;;;;4992074;28;20228;-72
2023/12/09 00:45:42;;;;;;;4.82;3.28;;;39.70;28.90;;;;;;4993423;28;20236;-70
2023/12/09 00:48:10;;;;;;;7.15;3.67;;;39.80;29.30;;;;;;4989677;28;20646;-72
2023/12/09 00:50:37;;;;;;;8.27;4.00;;;40.00;29.00;;;;;;4990994;28;20181;-69
2023/12/09 00:53:04;;;;;;;6.65;3.85;;;40.30;28.00;;;;;;4981130;28;20325;-69
2023/12/09 00:55:31;;;;;;;4.80;3.30;;;40.40;27.90;;;;;;4991919;28;20186;-70
2023/12/09 00:57:59;;;;;;;6.68;3.55;;;40.60;27.50;;;;;;4991910;28;20225;-67
2023/12/09 01:00:26;;;;;;;8.52;3.92;;;40.80;27.10;;;;;;4987887;28;20230;-72
2023/12/09 01:02:53;;;;;;;6.78;3.72;;;41.20;27.10;;;;;;4991702;28;20197;-67
2023/12/09 01:05:21;;;;;;;5.32;4.03;;;41.40;26.90;;;;;;4990553;28;20629;-74
2023/12/09 01:07:48;;;;;;;4.40;3.55;;;41.30;26.10;;;;;;4985351;28;20207;-71
2023/12/09 01:10:15;;;;;;;6.60;3.80;;;41.20;26.20;;;;;;4989601;28;20205;-74
2023/12/09 01:12:43;;;;;;;4.35;3.85;;;40.90;26.50;;;;;;4989457;28;20189;-72
2023/12/09 01:15:10;;;;;;;5.70;3.60;;;41.20;26.80;;;;;;4991688;28;20185;-75
2023/12/09 01:17:37;;;;;;;3.40;3.10;;;40.80;26.20;;;;;;4983895;28;20562;-72
2023/12/09 01:20:05;;;;;;;3.75;3.40;;;40.90;26.00;;;;;;4979697;28;20190;-74
2023/12/09 01:22:33;;;;;;;5.15;3.83;;;41.20;25.30;;;;;;4982724;28;20182;-72
2023/12/09 01:25:00;;;;;;;5.88;3.85;;;41.30;25.30;;;;;;4988844;28;20237;-70
2023/12/09 01:27:27;;;;;;;5.63;3.88;;;41.40;25.30;;;;;;4983734;28;20178;-71
2023/12/09 01:29:54;;;;;;;5.30;3.55;;;41.60;25.40;;;;;;4980370;28;20305;-73
2023/12/09 01:32:22;;;;;;;3.90;3.40;;;42.00;24.70;;;;;;4985898;28;20637;-68
2023/12/09 01:34:49;;;;;;;7.38;3.63;;;42.00;24.40;;;;;;4982523;28;20182;-70
2023/12/09 01:37:16;;;;;;;4.88;3.70;;;42.00;24.40;;;;;;4989076;28;20677;-73
2023/12/09 01:39:43;;;;;;;7.65;4.20;;;42.20;24.30;;;;;;4982451;28;20228;-71
2023/12/09 01:42:11;;;;;;;4.82;3.90;;;42.00;24.50;;;;;;4980628;28;20182;-71
2023/12/09 01:44:38;;;;;;;4.10;3.70;;;42.00;24.50;;;;;;4983409;28;20541;-68
2023/12/09 01:47:07;;;;;;;8.38;3.58;;;41.90;24.10;;;;;;4982697;28;20179;-71
2023/12/09 01:49:36;;;;;;;6.03;3.70;;;41.80;24.10;;;;;;4987762;28;20244;-69
2023/12/09 01:52:04;;;;;;;6.13;4.13;;;42.00;24.10;;;;;;4993092;28;20273;-71
2023/12/09 01:54:31;;;;;;;6.20;3.70;;;42.10;23.90;;;;;;4984932;28;20181;-69
2023/12/09 01:56:59;;;;;;;9.43;4.05;;;42.40;23.50;;;;;;4993542;28;20181;-72
2023/12/09 01:59:27;;;;;;;5.82;3.97;;;42.20;23.50;;;;;;4982639;28;20191;-70
2023/12/09 02:01:54;;;;;;;5.38;4.22;;;42.20;23.40;;;;;;4990581;28;20183;-71
2023/12/09 02:04:22;;;;;;;9.65;5.20;;;42.10;25.50;;;;;;4981326;28;20174;-70
2023/12/09 02:06:49;;;;;;;9.52;4.78;;;41.20;29.60;;;;;;4992275;28;20182;-71
2023/12/09 02:09:18;;;;;;;8.27;4.57;;;41.10;29.80;;;;;;4989513;28;20200;-71
2023/12/09 02:11:59;;;;;;;11.27;5.20;;;41.00;31.00;;;;;;4989713;28;20214;-71
2023/12/09 02:14:45;;;;;;;17.88;4.95;;;41.00;29.90;;;;;;4993245;28;20189;-71
2023/12/09 02:17:20;;;;;;;9.50;4.80;;;40.80;32.20;;;;;;4981563;28;20241;-70
2023/12/09 02:19:48;;;;;;;9.77;5.13;;;40.90;31.90;;;;;;4983083;28;20262;-68
2023/12/09 02:22:15;;;;;;;18.65;4.65;;;40.90;31.60;;;;;;4982022;28;20185;-72
2023/12/09 02:24:43;;;;;;;9.05;4.50;;;40.30;32.20;;;;;;4989255;28;20191;-71
2023/12/09 02:27:21;;;;;;;12.52;4.60;;;40.30;31.70;;;;;;4988352;28;20174;-70
2023/12/09 02:30:07;;;;;;;8.25;4.57;;;39.90;33.30;;;;;;4985338;28;20728;-70
2023/12/09 02:32:38;;;;;;;8.93;4.47;;;40.30;32.20;;;;;;4982910;28;20194;-70
2023/12/09 02:35:08;;;;;;;9.20;4.38;;;40.60;31.90;;;;;;4985744;28;20185;-71
2023/12/09 02:37:37;;;;;;;12.15;4.60;;;41.10;31.50;;;;;;4991923;28;20297;-71
2023/12/09 02:40:09;;;;;;;14.10;4.60;;;40.90;31.20;;;;;;4987771;28;20178;-70
2023/12/09 02:42:39;;;;;;;12.43;4.20;;;41.10;31.70;;;;;;4981695;28;20651;-72
2023/12/09 02:45:07;;;;;;;12.07;4.90;;;41.30;32.10;;;;;;4977604;28;20209;-72
2023/12/09 02:47:35;;;;;;;10.55;5.05;;;40.20;33.80;;;;;;4984547;28;20533;-72
2023/12/09 02:50:02;;;;;;;8.45;4.40;;;40.20;32.90;;;;;;4988106;28;20687;-72
2023/12/09 02:52:30;;;;;;;7.05;4.53;;;39.50;33.70;;;;;;4978840;28;20665;-72
2023/12/09 02:54:57;;;;;;;11.95;4.78;;;39.10;34.70;;;;;;4983707;28;20200;-71
2023/12/09 02:57:24;;;;;;;10.70;4.63;;;38.50;35.90;;;;;;4982944;28;20221;-71
2023/12/09 02:59:51;;;;;;;11.13;5.25;;;38.00;36.70;;;;;;4986455;28;20186;-73
2023/12/09 03:02:19;;;;;;;10.05;4.32;;;37.20;38.10;;;;;;4981560;28;20185;-71
2023/12/09 03:04:46;;;;;;;11.77;4.70;;;36.60;39.30;;;;;;4983022;28;20190;-72
2023/12/09 03:07:13;;;;;;;8.95;4.60;;;36.30;40.50;;;;;;4981560;28;20269;-74
2023/12/09 03:09:41;;;;;;;12.43;4.63;;;36.30;41.00;;;;;;4988256;28;20266;-72
2023/12/09 03:12:08;;;;;;;13.95;5.22;;;35.90;41.40;;;;;;4989691;28;20182;-71
2023/12/09 03:14:35;;;;;;;14.45;4.93;;;35.80;42.00;;;;;;4978916;28;20174;-70
2023/12/09 03:17:02;;;;;;;11.02;4.65;;;35.80;42.20;;;;;;4981254;28;20276;-71
2023/12/09 03:19:30;;;;;;;17.15;4.82;;;36.10;41.90;;;;;;4984654;28;20189;-71
2023/12/09 03:21:57;;;;;;;10.13;4.38;;;36.80;40.60;;;;;;4983193;28;20174;-70
2023/12/09 03:24:25;;;;;;;11.75;4.72;;;37.20;39.80;;;;;;4983633;28;20190;-70
2023/12/09 03:26:53;;;;;;;13.85;4.40;;;37.40;39.10;;;;;;4987040;28;20213;-72
2023/12/09 03:29:21;;;;;;;14.60;5.10;;;37.80;38.80;;;;;;4984142;28;20576;-72
2023/12/09 03:31:49;;;;;;;13.07;5.47;;;38.60;37.20;;;;;;4980863;28;20189;-71
2023/12/09 03:34:17;;;;;;;12.77;4.60;;;37.20;39.40;;;;;;4988353;28;20225;-72
2023/12/09 03:36:44;;;;;;;12.02;5.10;;;36.10;41.60;;;;;;4987391;28;20178;-72
2023/12/09 03:39:11;;;;;;;11.18;4.50;;;36.00;42.30;;;;;;4986796;28;20205;-70
2023/12/09 03:41:39;;;;;;;15.18;4.20;;;35.60;42.90;;;;;;4989747;28;20189;-72
2023/12/09 03:44:06;;;;;;;12.95;4.88;;;35.50;43.40;;;;;;4994348;28;20276;-70
2023/12/09 03:46:33;;;;;;;11.65;5.18;;;36.30;41.80;;;;;;4974640;28;20558;-71
2023/12/09 03:49:00;;;;;;;21.00;5.50;;;36.40;41.60;;;;;;4988008;28;20644;-71
2023/12/09 03:51:28;;;;;;;12.02;4.15;;;36.00;42.60;;;;;;4988911;28;20185;-71
2023/12/09 03:53:55;;;;;;;13.20;5.30;;;35.30;43.70;;;;;;4985529;28;20174;-70
2023/12/09 03:56:22;;;;;;;13.98;4.93;;;35.10;44.10;;;;;;4985375;28;20581;-72
2023/12/09 03:58:50;;;;;;;11.20;4.55;;;34.90;44.30;;;;;;4980149;28;20309;-71
2023/12/09 04:01:18;;;;;;;13.93;4.57;;;34.70;44.80;;;;;;4984538;28;20260;-71
2023/12/09 04:03:45;;;;;;;15.02;5.47;;;34.30;45.40;;;;;;4989332;28;20192;-71
2023/12/09 04:06:12;;;;;;;14.63;4.93;;;34.30;45.60;;;;;;4992609;28;20173;-71
2023/12/09 04:08:40;;;;;;;13.95;4.63;;;34.90;44.80;;;;;;4975423;28;20186;-71
2023/12/09 04:11:07;;;;;;;10.05;4.82;;;35.80;42.70;;;;;;4992436;28;20649;-70
2023/12/09 04:13:35;;;;;;;13.85;4.88;;;36.40;40.00;;;;;;4991495;28;20274;-71
2023/12/09 04:16:02;;;;;;;13.10;4.60;;;36.60;39.80;;;;;;4987353;28;20178;-73
2023/12/09 04:18:29;;;;;;;12.95;5.10;;;36.70;40.40;;;;;;4980053;28;20747;-73
2023/12/09 04:20:57;;;;;;;16.10;4.47;;;36.20;40.90;;;;;;4991253;28;20174;-71
2023/12/09 04:23:24;;;;;;;10.57;4.18;;;36.00;40.90;;;;;;4985606;28;20304;-72
2023/12/09 04:25:52;;;;;;;10.40;4.53;;;35.90;41.10;;;;;;4991820;28;20186;-72
2023/12/09 04:28:19;;;;;;;8.90;4.18;;;35.80;41.10;;;;;;4991927;28;20760;-72
2023/12/09 04:30:48;;;;;;;13.38;4.32;;;35.30;41.20;;;;;;4990108;28;20274;-71
2023/12/09 04:33:15;;;;;;;9.52;4.22;;;34.90;42.20;;;;;;4980239;28;20210;-71
2023/12/09 04:35:42;;;;;;;8.95;3.90;;;34.70;42.80;;;;;;4984900;28;20604;-72
2023/12/09 04:38:09;;;;;;;9.93;4.13;;;34.30;43.50;;;;;;4991665;28;20233;-70
2023/12/09 04:40:38;;;;;;;9.45;4.47;;;34.20;43.50;;;;;;4975785;28;20261;-70
2023/12/09 04:43:05;;;;;;;8.73;3.67;;;34.10;43.20;;;;;;4990167;28;20186;-74
2023/12/09 04:45:32;;;;;;;8.43;4.10;;;33.80;43.60;;;;;;4995600;28;20182;-70
2023/12/09 04:48:00;;;;;;;12.07;4.63;;;33.60;44.30;;;;;;4977756;28;20727;-70
2023/12/09 04:50:27;;;;;;;13.02;3.70;;;33.60;44.40;;;;;;4977877;28;20554;-71
2023/12/09 04:52:54;;;;;;;7.35;3.92;;;33.60;44.80;;;;;;4995547;28;20205;-70
2023/12/09 04:55:22;;;;;;;10.48;4.10;;;33.40;44.60;;;;;;4995679;28;20226;-73
2023/12/09 04:57:49;;;;;;;8.88;4.05;;;33.40;44.50;;;;;;4995452;28;20213;-69
2023/12/09 05:00:16;;;;;;;9.90;4.40;;;33.50;44.40;;;;;;4995198;28;20182;-71
2023/12/09 05:02:44;;;;;;;8.05;4.00;;;33.30;44.80;;;;;;4995526;28;20253;-71
2023/12/09 05:05:11;;;;;;;11.63;3.55;;;33.30;44.60;;;;;;4993143;28;20679;-71
2023/12/09 05:07:38;;;;;;;13.95;3.97;;;33.40;44.60;;;;;;4991114;28;20194;-71
2023/12/09 05:10:06;;;;;;;12.23;4.03;;;33.40;44.40;;;;;;4989249;28;20202;-71
2023/12/09 05:12:33;;;;;;;8.55;4.35;;;33.40;44.30;;;;;;4991671;28;20236;-70
2023/12/09 05:15:00;;;;;;;10.63;3.85;;;33.30;44.00;;;;;;4995696;28;20205;-70
2023/12/09 05:17:28;;;;;;;9.82;4.13;;;33.30;44.00;;;;;;4994194;28;20206;-71
2023/12/09 05:19:55;;;;;;;9.23;3.65;;;33.20;44.20;;;;;;4985099;28;20186;-70
2023/12/09 05:22:22;;;;;;;9.50;4.20;;;33.00;44.40;;;;;;4984853;28;20656;-71
2023/12/09 05:24:51;;;;;;;8.95;4.28;;;33.00;44.30;;;;;;4991679;28;20290;-70
2023/12/09 05:27:18;;;;;;;9.93;3.90;;;33.00;44.60;;;;;;4989770;28;20221;-70
2023/12/09 05:29:45;;;;;;;14.10;4.55;;;33.10;44.50;;;;;;4991791;28;20244;-70
2023/12/09 05:32:13;;;;;;;11.75;4.38;;;32.90;44.80;;;;;;4990352;28;20808;-71
2023/12/09 05:34:40;;;;;;;13.13;4.70;;;32.70;45.40;;;;;;4995638;28;20177;-70
2023/12/09 05:37:07;;;;;;;13.52;5.07;;;32.80;45.60;;;;;;4991605;28;20185;-70
2023/12/09 05:39:35;;;;;;;17.98;4.68;;;32.80;46.10;;;;;;4985136;28;20599;-70
2023/12/09 05:42:04;;;;;;;19.35;4.82;;;33.30;45.30;;;;;;4994028;28;20178;-71
2023/12/09 05:44:31;;;;;;;15.52;4.57;;;33.40;45.40;;;;;;4977681;28;20546;-70
2023/12/09 05:46:59;;;;;;;9.65;4.22;;;33.50;45.20;;;;;;4994755;28;20573;-70
2023/12/09 05:49:26;;;;;;;14.68;5.28;;;33.60;45.30;;;;;;4989564;28;20217;-71
2023/12/09 05:51:53;;;;;;;8.77;4.25;;;34.30;43.60;;;;;;4982094;28;20638;-71
2023/12/09 05:54:21;;;;;;;12.38;4.88;;;34.50;42.60;;;;;;4975280;28;20193;-71
2023/12/09 05:56:51;;;;;;;11.05;4.70;;;34.40;42.90;;;;;;4994020;28;20182;-71
2023/12/09 05:59:18;;;;;;;13.43;4.63;;;34.40;41.90;;;;;;4992745;28;20248;-70
2023/12/09 06:01:46;;;;;;;9.20;4.25;;;34.60;41.70;;;;;;4978680;28;20230;-70
2023/12/09 06:04:13;;;;;;;8.88;4.60;;;34.50;41.20;;;;;;4990194;28;20197;-70
2023/12/09 06:06:40;;;;;;;12.55;4.43;;;34.50;41.30;;;;;;4989173;28;20191;-71
2023/12/09 06:09:09;;;;;;;10.35;4.97;;;34.50;40.60;;;;;;4991285;28;20174;-71
2023/12/09 06:11:36;;;;;;;12.80;4.15;;;34.60;40.30;;;;;;4988005;28;20185;-71
2023/12/09 06:14:04;;;;;;;19.00;5.00;;;34.70;39.80;;;;;;4968899;28;20568;-71
2023/12/09 06:16:31;;;;;;;7.78;4.15;;;35.30;38.60;;;;;;4987069;28;20226;-70
2023/12/09 06:18:58;;;;;;;11.32;4.22;;;35.30;37.90;;;;;;4980531;28;20585;-71
2023/12/09 06:21:26;;;;;;;11.70;4.07;;;35.30;37.50;;;;;;4984470;28;20182;-70
2023/12/09 06:23:54;;;;;;;9.40;4.60;;;35.20;37.30;;;;;;4984052;28;20522;-70
2023/12/09 06:26:21;;;;;;;7.07;3.80;;;35.20;37.30;;;;;;4984094;28;20293;-69
2023/12/09 06:28:49;;;;;;;6.53;3.83;;;35.20;36.10;;;;;;4986260;28;20233;-69
2023/12/09 06:31:17;;;;;;;7.55;3.70;;;35.20;36.10;;;;;;4988589;28;20178;-69
2023/12/09 06:33:44;;;;;;;10.80;3.85;;;35.30;34.60;;;;;;4970054;28;20232;-69
2023/12/09 06:36:11;;;;;;;7.82;3.22;;;35.50;33.80;;;;;;4989393;28;20178;-70
2023/12/09 06:38:41;;;;;;;7.18;3.42;;;35.90;32.50;;;;;;4986807;28;20221;-70
2023/12/09 06:41:09;;;;;;;7.05;3.92;;;36.70;30.90;;;;;;4983543;28;20608;-70
2023/12/09 06:43:36;;;;;;;6.97;3.55;;;36.70;31.30;;;;;;4993640;28;20190;-69
2023/12/09 06:46:04;;;;;;;5.15;3.05;;;36.80;31.00;;;;;;4990284;28;20182;-70
2023/12/09 06:48:31;;;;;;;8.02;2.97;;;36.80;30.80;;;;;;4992334;28;20186;-69
2023/12/09 06:50:58;;;;;;;3.97;2.67;;;36.60;30.80;;;;;;4992697;28;20224;-70
2023/12/09 06:53:26;;;;;;;5.72;2.88;;;36.40;29.90;;;;;;4989612;28;20182;-68
2023/12/09 06:55:53;;;;;;;4.82;2.90;;;36.40;29.90;;;;;;4992501;28;20190;-68
2023/12/09 06:58:20;;;;;;;7.10;2.92;;;36.40;30.30;;;;;;4988025;28;20213;-68
2023/12/09 07:00:48;;;;;;;6.45;3.28;;;36.30;30.40;;;;;;4992395;28;20197;-69
2023/12/09 07:03:15;;;;;;;4.30;2.88;;;36.30;30.00;;;;;;4991611;28;20190;-69
2023/12/09 07:05:42;;;;;;;3.55;2.90;;;36.20;30.20;;;;;;4991605;28;20527;-68
2023/12/09 07:08:10;;;;;;;6.90;3.53;;;36.20;30.10;;;;;;4990893;28;20193;-71
2023/12/09 07:10:38;;;;;;;9.52;3.17;;;36.10;30.10;;;;;;4983111;28;20210;-69
2023/12/09 07:13:05;;;;;;;4.80;3.33;;;36.10;30.10;;;;;;4986666;28;20653;-68
2023/12/09 07:15:32;;;;;;;7.03;3.83;;;36.00;30.90;;;;;;4991351;28;20194;-71
2023/12/09 07:17:59;;;;;;;6.05;3.78;;;35.90;31.60;;;;;;4993434;28;20202;-70
2023/12/09 07:20:27;;;;;;;9.98;4.57;;;35.80;32.20;;;;;;4993185;28;20690;-71
2023/12/09 07:22:54;;;;;;;8.90;4.68;;;35.50;33.60;;;;;;4991397;28;20190;-71
2023/12/09 07:25:23;;;;;;;10.25;4.65;;;35.10;35.00;;;;;;4991071;28;20232;-71
2023/12/09 07:27:51;;;;;;;8.45;4.82;;;34.80;35.80;;;;;;4991853;28;20260;-71
2023/12/09 07:30:18;;;;;;;9.77;4.80;;;34.70;36.80;;;;;;4992079;28;20273;-70
2023/12/09 07:32:45;;;;;;;9.93;4.32;;;34.50;37.70;;;;;;4993068;28;20715;-70
2023/12/09 07:35:13;;;;;;;13.35;4.53;;;34.50;38.40;;;;;;4973077;28;20186;-72
2023/12/09 07:37:40;;;;;;;7.85;3.50;;;34.10;40.10;;;;;;4986302;28;20225;-70
2023/12/09 07:40:11;;;;;;;8.75;3.53;;;33.80;41.30;;;;;;4992962;28;20520;-73
2023/12/09 07:42:39;;;;;;;12.35;3.40;;;33.60;41.80;;;;;;4993377;28;20190;-71
2023/12/09 07:45:07;;;;;;;7.70;3.85;;;33.40;42.20;;;;;;4992975;28;20231;-68
2023/12/09 07:47:34;;;;;;;9.00;3.50;;;33.50;42.10;;;;;;4991170;28;20644;-71
2023/12/09 07:50:01;;;;;;;8.15;3.85;;;33.60;41.70;;;;;;4984074;28;20178;-70
2023/12/09 07:52:28;;;;;;;5.57;3.55;;;33.60;42.00;;;;;;4982334;28;20720;-71
2023/12/09 07:54:56;;;;;;;9.15;3.85;;;33.40;42.10;;;;;;4992019;28;20186;-69
2023/12/09 07:57:23;;;;;;;11.88;4.35;;;33.30;42.60;;;;;;4993252;28;20540;-71
2023/12/09 07:59:50;;;;;;;8.35;3.72;;;33.20;42.80;;;;;;4988812;28;20186;-69
2023/12/09 08:02:18;;;;;;;12.40;3.97;;;33.00;43.00;;;;;;4980900;28;20190;-71
2023/12/09 08:04:45;;;;;;;9.80;3.67;;;32.90;43.40;;;;;;4981732;28;20664;-71
2023/12/09 08:07:13;;;;;;;10.70;3.90;;;32.80;43.70;;;;;;4991000;28;20177;-70
2023/12/09 08:09:40;;;;;;;12.52;4.13;;;32.80;43.90;;;;;;4988160;28;20193;-71
2023/12/09 08:12:08;;;;;;;12.80;4.22;;;32.70;44.10;;;;;;4987114;28;20206;-72
2023/12/09 08:14:35;;;;;;;8.55;3.65;;;32.50;44.50;;;;;;4991467;28;20185;-70
2023/12/09 08:17:02;;;;;;;10.95;3.80;;;32.40;44.70;;;;;;4989779;28;20193;-69
2023/12/09 08:19:30;;;;;;;11.68;3.72;;;32.40;45.00;;;;;;4993156;28;20320;-70
2023/12/09 08:21:57;;;;;;;14.50;4.25;;;32.40;45.00;;;;;;4995913;28;20185;-70
2023/12/09 08:24:24;;;;;;;13.20;4.55;;;32.30;45.60;;;;;;4995484;28;20174;-72
2023/12/09 08:26:52;;;;;;;20.00;4.70;;;31.80;47.20;;;;;;4994922;28;20180;-72
2023/12/09 08:29:20;;;;;;;22.63;5.63;;;31.40;48.20;;;;;;4991303;28;20273;-72
2023/12/09 08:31:49;;;;;;;28.60;6.45;;;31.20;51.10;;;;;;4995331;28;20180;-70
2023/12/09 08:34:17;;;;;;;28.88;6.53;;;30.60;55.00;;;;;;4990300;28;20535;-71
2023/12/09 08:36:45;;;;;;;31.88;7.88;;;29.50;59.50;;;;;;4994519;28;20220;-71
2023/12/09 08:39:14;;;;;;;38.10;8.03;;;28.90;63.50;;;;;;4992928;28;20691;-70
2023/12/09 08:41:41;;;;;;;34.50;7.00;;;28.30;66.60;;;;;;4994967;28;20205;-67
2023/12/09 08:44:08;;;;;;;33.93;7.60;;;27.50;70.20;;;;;;4996095;28;20197;-69
2023/12/09 08:46:36;;;;;;;33.07;8.07;;;27.20;72.50;;;;;;4995563;28;20182;-70
2023/12/09 08:49:03;;;;;;;33.97;8.37;;;27.10;73.10;;;;;;4994961;28;20178;-69
2023/12/09 08:51:30;;;;;;;42.50;8.67;;;27.00;73.60;;;;;;4995601;28;20179;-69
2023/12/09 08:53:58;;;;;;;38.57;8.27;;;26.80;74.40;;;;;;4995407;28;20201;-69
2023/12/09 08:56:25;;;;;;;29.03;8.30;;;26.70;74.60;;;;;;4994193;28;20264;-72
2023/12/09 08:58:52;;;;;;;39.23;8.87;;;26.50;76.00;;;;;;4994886;28;20214;-72
2023/12/09 09:01:19;;;;;;;36.67;9.07;;;26.40;76.20;;;;;;4995428;28;20202;-66
2023/12/09 09:03:47;;;;;;;44.03;10.13;;;26.20;77.10;;;;;;4994520;28;20193;-68
2023/12/09 09:06:14;;;;;;;40.07;9.47;;;26.20;77.40;;;;;;4994365;28;20276;-65
2023/12/09 09:08:43;;;;;;;41.87;10.37;;;26.20;77.50;;;;;;4991940;28;20231;-68
2023/12/09 09:11:12;;;;;;;51.40;10.77;;;26.00;78.50;;;;;;4994520;28;20212;-68
2023/12/09 09:13:39;;;;;;;50.37;10.00;;;26.00;78.60;;;;;;4983632;28;20195;-65
2023/12/09 09:16:07;;;;;;;46.80;11.57;;;25.90;78.50;;;;;;4986553;28;20229;-64
2023/12/09 09:18:34;;;;;;;47.67;10.77;;;25.80;79.00;;;;;;4993174;28;20206;-66
2023/12/09 09:21:01;;;;;;;46.63;10.03;;;25.80;79.30;;;;;;4992499;28;20197;-66
2023/12/09 09:23:29;;;;;;;47.17;9.80;;;25.50;79.50;;;;;;4994317;28;20510;-66
2023/12/09 09:25:56;;;;;;;44.23;10.00;;;25.30;80.70;;;;;;4975338;28;20229;-65
2023/12/09 09:28:24;;;;;;;42.43;9.77;;;25.40;80.50;;;;;;4994272;28;20229;-66
2023/12/09 09:30:51;;;;;;;38.37;10.07;;;25.50;80.20;;;;;;4983234;28;20820;-68
2023/12/09 09:33:18;;;;;;;44.83;10.33;;;25.30;80.80;;;;;;4996420;28;20189;-74
2023/12/09 09:35:48;;;;;;;42.47;10.03;;;25.10;81.40;;;;;;4993400;28;20185;-75
2023/12/09 09:38:16;;;;;;;46.73;10.60;;;25.10;81.80;;;;;;4995419;28;20688;-70
2023/12/09 09:40:43;;;;;;;42.63;10.10;;;25.20;81.10;;;;;;4991269;28;20665;-74
2023/12/09 09:43:20;;;;;;;38.10;9.03;;;25.00;81.80;;;;;;4993503;28;20240;-75
2023/12/09 09:45:48;;;;;;;43.40;9.30;;;25.00;81.40;;;;;;4984222;28;20205;-70
2023/12/09 09:48:18;;;;;;;39.60;10.13;;;25.00;81.50;;;;;;4995015;28;20184;-75
2023/12/09 09:50:53;;;;;;;36.27;8.73;;;24.90;81.80;;;;;;4994941;28;20186;-69
2023/12/09 09:53:47;;;;;;;36.83;8.93;;;24.90;81.50;;;;;;4995133;28;20177;-68
2023/12/09 09:56:14;;;;;;;32.73;8.90;;;25.00;81.30;;;;;;4991472;28;20182;-73
2023/12/09 09:58:42;;;;;;;34.60;8.83;;;24.90;81.70;;;;;;4986383;28;20213;-78
2023/12/09 10:01:13;;;;;;;38.57;8.40;;;24.90;81.80;;;;;;4985702;28;20183;-72
2023/12/09 10:03:40;;;;;;;42.00;9.27;;;24.80;82.10;;;;;;4985524;28;20179;-70
2023/12/09 10:06:10;;;;;;;35.47;8.97;;;24.80;82.50;;;;;;4990791;28;20233;-76
2023/12/09 10:08:37;;;;;;;38.20;8.93;;;24.70;82.50;;;;;;4993000;28;20204;-75
2023/12/09 10:11:04;;;;;;;47.10;11.47;;;24.70;82.70;;;;;;4992282;28;20544;-75
2023/12/09 10:13:32;;;;;;;41.37;8.93;;;24.60;83.20;;;;;;4994308;28;20645;-78
2023/12/09 10:15:59;;;;;;;41.50;8.47;;;24.60;83.60;;;;;;4993489;28;20763;-73
2023/12/09 10:18:26;;;;;;;41.20;8.93;;;24.50;83.50;;;;;;4986572;28;20688;-71
2023/12/09 10:20:54;;;;;;;39.97;9.30;;;24.40;83.90;;;;;;4982874;28;20733;-72
2023/12/09 10:23:22;;;;;;;45.17;9.37;;;24.30;84.30;;;;;;4991184;28;20262;-71
2023/12/09 10:25:49;;;;;;;28.13;7.53;;;24.30;84.40;;;;;;4975520;28;20766;-67
2023/12/09 10:28:16;;;;;;;37.20;8.10;;;24.20;84.50;;;;;;4992400;28;20230;-73
2023/12/09 10:30:45;;;;;;;35.27;8.27;;;24.30;84.20;;;;;;4993564;28;20202;-74
2023/12/09 10:33:13;;;;;;;39.20;7.60;;;24.20;84.60;;;;;;4989210;28;20560;-72
2023/12/09 10:35:40;;;;;;;32.57;7.90;;;24.20;84.80;;;;;;4981161;28;20192;-75
2023/12/09 10:38:09;;;;;;;44.93;9.33;;;24.30;84.60;;;;;;4983828;28;20317;-72
2023/12/09 10:40:36;;;;;;;33.10;7.90;;;24.40;84.20;;;;;;4988407;28;20550;-73
2023/12/09 10:43:04;;;;;;;39.83;8.60;;;24.40;83.90;;;;;;4973352;28;20182;-72
2023/12/09 10:45:32;;;;;;;41.83;8.63;;;24.40;83.70;;;;;;4992864;28;20244;-72
2023/12/09 10:47:59;;;;;;;35.40;8.70;;;24.30;84.10;;;;;;4982382;28;20182;-71
2023/12/09 10:50:26;;;;;;;33.93;7.63;;;24.20;84.40;;;;;;4992284;28;20181;-73
2023/12/09 10:52:54;;;;;;;31.23;6.97;;;24.30;84.20;;;;;;4985420;28;20545;-68
2023/12/09 10:55:21;;;;;;;35.83;7.97;;;24.30;84.20;;;;;;4991480;28;20178;-72
2023/12/09 10:57:51;;;;;;;40.77;7.97;;;24.10;84.60;;;;;;4989273;28;20284;-79
2023/12/09 11:00:19;;;;;;;40.37;9.20;;;24.00;85.00;;;;;;4987652;28;20614;-73
2023/12/09 11:02:46;;;;;;;36.10;7.77;;;24.10;84.60;;;;;;4985602;28;20265;-72
2023/12/09 11:05:14;;;;;;;40.30;7.97;;;24.20;84.60;;;;;;4989735;28;20201;-70
2023/12/09 11:07:44;;;;;;;36.10;7.10;;;24.00;84.40;;;;;;4980984;28;20571;-72
2023/12/09 11:10:12;;;;;;;33.33;7.10;;;24.00;84.50;;;;;;4987036;28;20586;-68
2023/12/09 11:12:46;;;;;;;27.07;6.50;;;24.00;84.80;;;;;;4989922;28;20186;-69
2023/12/09 11:15:16;;;;;;;29.73;6.73;;;24.00;84.90;;;;;;4990019;28;20185;-67
2023/12/09 11:17:44;;;;;;;28.17;5.93;;;23.90;84.70;;;;;;4983443;28;20615;-67
2023/12/09 11:20:22;;;;;;;24.03;5.70;;;23.90;84.80;;;;;;4989018;28;20188;-65
2023/12/09 11:22:50;;;;;;;28.10;6.10;;;23.90;84.90;;;;;;4980474;28;20500;-66
2023/12/09 11:25:21;;;;;;;22.00;5.23;;;24.00;84.60;;;;;;4971579;28;20240;-66
2023/12/09 11:27:53;;;;;;;18.33;5.40;;;24.00;84.50;;;;;;4990816;28;20189;-66
2023/12/09 11:30:46;;;;;;;24.43;5.90;;;23.90;84.80;;;;;;4981192;28;20242;-65
2023/12/09 11:33:13;;;;;;;25.90;5.90;;;23.90;85.00;;;;;;4975556;28;20633;-64
2023/12/09 11:35:42;;;;;;;21.33;5.17;;;23.90;85.20;;;;;;4990625;28;20668;-67
2023/12/09 11:38:12;;;;;;;24.03;5.23;;;24.00;84.90;;;;;;4992257;28;20218;-67
2023/12/09 11:40:39;;;;;;;17.33;4.40;;;24.00;84.70;;;;;;4991008;28;20197;-65
2023/12/09 11:43:08;;;;;;;20.53;5.27;;;23.80;85.00;;;;;;4990982;28;20188;-66
2023/12/09 11:45:36;;;;;;;24.17;4.60;;;23.80;84.90;;;;;;4992417;28;20193;-65
2023/12/09 11:48:05;;;;;;;24.07;4.60;;;23.90;85.40;;;;;;4993133;28;20186;-66
2023/12/09 11:50:32;;;;;;;24.60;5.27;;;23.90;84.60;;;;;;4992704;28;20178;-71
2023/12/09 11:53:00;;;;;;;20.53;4.60;;;24.00;84.50;;;;;;4990946;28;20236;-69
2023/12/09 11:55:27;;;;;;;20.73;4.87;;;23.90;85.10;;;;;;4991667;28;20616;-67
2023/12/09 11:57:54;;;;;;;23.60;5.20;;;23.80;85.10;;;;;;4992913;28;20611;-65
2023/12/09 12:00:22;;;;;;;26.63;5.17;;;23.80;85.60;;;;;;4992968;28;20554;-68
2023/12/09 12:02:49;;;;;;;27.17;5.77;;;23.80;85.50;;;;;;4991594;28;20217;-64
2023/12/09 12:05:16;;;;;;;24.90;4.93;;;23.70;85.10;;;;;;4991866;28;20181;-68
2023/12/09 12:07:44;;;;;;;24.97;5.33;;;23.60;85.90;;;;;;4992337;28;20619;-66
2023/12/09 12:10:14;;;;;;;27.47;5.63;;;23.60;85.90;;;;;;4993080;28;20197;-64
2023/12/09 12:12:42;;;;;;;25.63;5.23;;;23.50;86.10;;;;;;4982256;28;20186;-68
2023/12/09 12:15:10;;;;;;;25.73;5.73;;;23.40;86.20;;;;;;4991476;28;20208;-64
2023/12/09 12:17:41;;;;;;;20.63;5.17;;;23.30;86.40;;;;;;4988838;28;20209;-65
2023/12/09 12:20:12;;;;;;;25.67;4.97;;;23.40;86.20;;;;;;4991032;28;20198;-65
2023/12/09 12:22:42;;;;;;;25.77;5.27;;;23.30;86.70;;;;;;4992058;28;20186;-65
2023/12/09 12:25:10;;;;;;;28.23;5.90;;;23.30;86.50;;;;;;4991470;28;20185;-65
2023/12/09 12:27:44;;;;;;;20.30;4.27;;;23.30;86.50;;;;;;4991108;28;20193;-66
2023/12/09 12:30:13;;;;;;;28.00;4.93;;;23.30;86.30;;;;;;4992747;28;20242;-68
2023/12/09 12:32:40;;;;;;;23.23;4.70;;;23.20;86.50;;;;;;4991718;28;20190;-66
2023/12/09 12:35:08;;;;;;;21.80;5.40;;;23.20;86.30;;;;;;4986842;28;20194;-66
2023/12/09 12:37:36;;;;;;;20.97;4.50;;;23.10;86.70;;;;;;4991189;28;20547;-70
2023/12/09 12:40:05;;;;;;;19.70;4.70;;;23.00;86.70;;;;;;4992803;28;20186;-67
2023/12/09 12:42:32;;;;;;;20.90;5.23;;;23.00;86.60;;;;;;4984479;28;20193;-71
2023/12/09 12:45:02;;;;;;;21.53;3.90;;;23.10;86.60;;;;;;4980678;28;20197;-70